首页
METAR-TAF:

METAR-TAF

机场 :

埃尔多拉多国际机场

波哥大, 哥伦比亚

纬度: 04-43N, 经度: 074-09W, 海拔: 2547米

当前天气观测

该预报发布于26分钟前的14:00 UTC
风速6节,风向东北
温度 15°C
湿度 72%
气压 1028 hPa
能见度10公里或以上
少量云层高于2300英尺

METAR: SKBO 141400Z 04006KT 9999 FEW023 15/10 Q1028 NOSIG

时间: 09:26 (14:26 UTC)

预报

该预报发布于3小时和56分钟前的10:30 UTC
预报有效从14日的 12点(UTC)到 15日的 12点(UTC)
风速5节,风向东北
能见度10公里或以上
散云层高于1700英尺
成为
从 14日的 16点(UTC)到 14日的 18点(UTC)
风速10节,风向西
几率 40% :
短暂存在
从 14日的 21点(UTC)到 14日的 24点(UTC)
多云层高于1700英尺, 塔状积云.
毛毛雨, 雨
成为
从 15日的 00点(UTC)到 15日的 02点(UTC)
风速5节,风向东北

TAF: SKBO 141030Z 1412/1512 05005KT 9999 SCT017 BECMG 1416/1418 28010KT PROB40 TEMPO 1421/1424 DZRA BKN017TCU BECMG 1500/1502 05005KT TX23/1419Z TN10/1510Z

超过4000个机场的气象观测和天气预报(METAR&TAF报告)。

可查询的气象台以黄色和红色小点在地图上表示。

将鼠标移到小点上方,可查看气象台名称。

然后点击查看天气观测和预报。

如需切换地图:点击带黑十字的绿色按钮放大地图;点击带横线的绿色按钮缩小地图;或者点击绿色箭头查看邻近地区的地图。


METAR-TAF: